Date,TemperatureHighF,TemperatureAvgF,TemperatureLowF,DewpointHighF,DewpointAvgF,DewpointLowF,HumidityHigh,HumidityAvg,HumidityLow,PressureMaxIn,PressureMinIn,WindSpeedMaxMPH,WindSpeedAvgMPH,GustSpeedMaxMPH,PrecipitationSumIn
2012-1-10,55.8,49.9,44.6,54.1,-15.9,-99.9,100,55,9,30.17,30.02,3,1,7,0.00
2012-1-11,49.3,44.9,42.9,49.3,44.9,42.9,100,100,100,30.01,29.61,9,4,17,0.67
2012-1-12,53.8,43.1,25.3,50.6,39.5,14.1,100,88,62,29.72,29.57,9,3,19,0.01
2012-1-13,33.2,24.9,19.5,15.3,12.6,9.3,71,60,46,30.05,29.72,8,5,17,0.02
2012-1-14,40.3,30.3,21.5,26.1,11.8,-0.3,73,48,22,30.15,30.02,7,4,26,0.00
2012-1-15,42.0,33.3,27.8,27.8,20.1,9.5,80,61,26,30.45,30.09,8,3,20,0.00
2012-1-16,43.7,35.4,26.8,26.7,20.2,15.7,71,56,32,30.49,30.33,5,2,12,0.00
2012-1-17,60.6,49.0,38.8,49.9,41.9,26.5,96,77,61,30.31,29.94,8,5,22,0.32
2012-1-18,47.8,35.8,28.6,44.7,24.2,18.4,89,63,44,30.11,29.96,6,4,19,0.01
2012-1-19,42.8,31.5,22.4,22.5,19.7,16.1,84,64,35,30.17,30.06,4,1,9,0.00
2012-1-20,52.4,39.8,28.6,39.2,32.0,21.2,96,75,56,30.15,30.07,7,2,10,0.19
2012-1-21,52.0,46.5,39.7,50.8,45.4,38.7,100,96,87,30.13,29.91,5,1,16,0.46
2012-1-22,45.4,38.3,34.4,44.9,37.8,33.9,99,98,96,30.32,30.13,8,5,12,0.00
2012-1-23,47.2,39.6,33.2,47.2,39.2,32.4,100,99,97,30.26,30.04,7,2,14,0.45
2012-1-24,58.8,44.8,34.4,44.3,28.7,0.2,99,65,10,30.30,30.08,5,2,16,0.01
2012-1-25,62.3,46.3,32.4,36.6,27.6,20.1,79,52,20,30.36,30.23,4,1,8,0.00
2012-1-26,61.1,53.8,46.3,55.7,48.2,34.2,96,82,55,30.23,29.78,6,2,28,0.34
2012-1-27,56.6,46.5,34.2,54.9,39.4,28.4,94,77,62,30.08,29.72,8,5,30,0.04
2012-1-28,55.6,39.2,29.4,35.3,30.3,26.3,91,73,44,30.19,30.07,9,3,22,0.00
2012-1-30,56.2,41.0,27.8,19.9,10.4,-0.5,58,32,10,30.42,30.27,5,2,12,0.00
2012-1-31,64.1,45.5,30.6,25.8,20.0,16.8,65,40,18,30.42,30.28,5,1,10,0.00
2012-2-1,58.9,48.0,39.6,48.9,38.4,22.4,94,71,47,30.30,30.13,4,1,8,0.48
2012-2-2,59.0,49.7,36.3,47.5,39.2,31.0,97,70,38,30.35,30.10,8,3,24,0.00
2012-2-3,53.2,41.8,32.5,31.0,23.0,8.9,84,53,17,30.49,30.35,9,3,14,0.00
2012-2-4,53.7,45.9,38.8,50.2,41.8,26.5,98,86,60,30.39,30.10,3,1,7,0.24
2012-2-5,62.3,51.6,40.3,51.4,44.5,36.0,99,79,50,30.20,30.02,6,2,17,0.03
2012-2-6,51.2,39.0,32.8,38.7,35.0,31.0,98,86,60,30.28,30.15,6,3,12,0.01
2012-2-7,56.4,40.0,29.3,33.9,24.1,2.4,91,60,11,30.22,30.14,4,1,10,0.00
2012-2-8,47.8,37.7,30.7,32.8,26.7,21.5,75,65,47,30.22,30.14,7,3,22,0.00
2012-2-9,47.2,35.8,28.4,25.5,22.7,19.8,79,60,34,30.29,30.17,6,2,16,0.00
2012-2-10,45.9,36.2,27.8,30.4,27.3,23.9,88,72,47,30.18,29.92,4,1,7,0.01
2012-2-11,37.4,26.6,14.1,28.2,15.6,-0.6,80,63,44,30.14,29.82,13,6,30,0.00
2012-2-12,35.1,22.1,12.2,6.7,1.9,-2.5,56,42,24,30.25,30.12,10,6,29,0.00
2012-2-13,47.5,33.7,17.7,15.2,6.8,-6.7,69,37,10,30.26,30.09,6,2,15,0.00
2012-2-14,48.0,39.1,32.1,36.3,28.8,11.3,91,68,34,30.11,29.99,6,2,15,0.00
2012-2-15,58.1,43.9,29.4,36.0,25.1,8.8,92,57,15,30.29,30.11,5,2,11,0.01
2012-2-16,57.3,48.2,42.4,48.5,39.6,26.2,96,73,44,30.28,30.06,5,1,16,0.02
2012-2-17,60.7,48.2,37.0,39.7,26.4,3.4,89,51,10,30.18,30.11,6,2,16,0.00
2012-2-18,61.1,47.8,35.6,39.3,31.6,24.5,80,56,28,30.17,30.00,4,1,9,0.00
2012-2-19,47.3,38.2,32.1,42.2,35.9,29.5,95,92,75,30.00,29.78,14,6,25,0.17
2012-2-20,48.1,35.9,27.5,30.2,24.6,11.0,91,67,26,30.33,30.00,5,3,11,0.01
2012-2-21,52.8,39.3,27.5,34.3,28.8,20.1,84,67,48,30.32,30.05,8,3,21,0.00
2012-2-22,61.9,50.2,35.2,45.9,32.4,20.6,89,54,27,30.06,29.71,9,4,29,0.31
2012-2-23,69.7,55.6,41.3,52.8,45.8,39.4,100,73,42,29.79,29.70,8,3,22,0.01
2012-2-24,69.9,53.7,33.5,56.7,42.0,15.7,92,66,34,29.98,29.67,13,5,39,0.10
2012-2-25,46.2,36.1,28.6,16.9,10.0,0.3,53,36,16,30.29,29.99,10,6,27,0.00
2012-2-26,52.4,36.4,23.5,19.5,11.9,-3.0,67,41,10,30.43,30.29,5,2,18,0.00
2012-2-27,63.0,47.2,31.3,42.1,32.0,19.4,73,56,43,30.42,30.32,5,2,10,0.00
2012-2-28,62.3,48.8,34.8,41.1,32.5,27.6,79,56,32,30.45,30.32,5,2,11,0.00
2012-2-29,67.6,57.7,51.6,56.5,51.5,41.3,97,81,60,30.32,29.94,7,3,17,0.08
2012-3-1,71.6,60.7,42.8,55.6,15.8,-8.2,96,23,5,29.99,29.91,7,3,18,0.00
2012-3-2,59.0,53.6,42.6,56.9,42.9,16.8,97,71,25,30.03,29.79,8,2,13,0.62
2012-3-3,57.5,48.1,41.1,56.7,32.1,-0.5,97,60,17,29.89,29.70,8,3,34,0.60
2012-3-4,41.7,36.2,29.2,25.6,16.2,10.4,62,45,29,30.02,29.77,12,5,23,0.00
2012-3-5,42.2,35.2,28.3,30.1,17.2,7.1,81,50,25,30.43,29.90,15,5,29,0.02
2012-3-6,51.4,36.6,23.8,23.2,17.2,14.0,70,48,23,30.59,30.42,6,2,11,0.00
2012-3-7,57.0,47.0,33.3,46.9,37.3,21.6,88,69,59,30.60,30.44,8,2,21,0.00
2012-3-8,60.3,55.0,50.2,53.8,49.8,46.5,95,83,66,30.44,30.16,6,2,16,0.28
2012-3-9,53.9,46.5,34.1,52.5,37.8,21.7,100,75,39,30.36,30.15,9,3,20,0.17
2012-3-10,55.6,41.7,28.9,29.2,19.9,4.3,82,48,14,30.52,30.34,6,2,12,0.00
2012-3-11,59.8,45.3,30.8,35.5,27.9,21.8,86,54,24,30.56,30.45,5,2,11,0.00
2012-3-12,58.9,52.5,45.9,52.7,47.7,35.8,100,84,67,30.47,30.32,6,1,13,0.15
2012-3-13,72.2,59.3,51.8,61.7,53.4,48.0,100,84,43,30.32,30.21,5,2,12,0.12
2012-3-14,77.4,60.5,46.1,56.3,46.6,29.9,100,68,18,30.34,30.24,6,1,12,0.00
2012-3-15,77.5,59.5,47.7,63.3,50.9,45.2,100,76,38,30.36,30.27,7,1,14,0.06
2012-3-16,77.6,60.9,47.3,60.8,53.0,47.3,100,79,39,30.33,30.20,8,2,18,0.30
2012-3-17,76.3,57.9,48.6,60.6,53.8,48.6,100,88,45,30.33,30.25,8,1,12,0.06
2012-3-18,71.0,58.8,52.3,62.2,55.9,51.8,100,91,61,30.40,30.27,4,1,7,0.09
2012-3-19,78.7,64.5,51.5,62.5,53.9,46.6,100,73,36,30.32,30.19,5,1,11,0.01
2012-3-20,77.4,64.3,55.0,61.8,55.4,50.8,100,76,43,30.29,30.20,5,1,11,0.06
2012-3-21,70.1,61.2,53.4,60.4,56.1,52.9,100,85,58,30.35,30.25,6,2,11,0.06
2012-3-22,72.6,62.8,55.5,61.1,57.9,53.5,100,85,62,30.34,30.23,6,1,14,0.00
2012-3-23,67.3,60.7,54.9,64.8,59.8,54.8,100,97,85,30.25,30.02,6,1,13,0.32
2012-3-24,69.8,59.2,50.4,59.7,53.1,41.8,100,82,43,30.02,29.81,8,2,26,0.01
2012-3-25,57.7,52.2,46.0,51.8,47.8,43.4,95,85,78,29.96,29.81,6,2,17,0.01
2012-3-26,73.5,60.2,49.6,49.8,46.6,39.1,90,64,35,30.15,29.95,7,2,15,0.00
2012-3-27,66.1,52.7,42.6,45.3,36.9,25.7,92,59,32,30.32,30.14,8,2,13,0.00
2012-3-28,77.1,61.1,46.4,52.9,46.3,38.7,84,61,36,30.26,30.01,8,3,19,0.00
2012-3-29,77.8,65.9,56.2,54.8,50.8,45.9,79,60,36,30.06,29.97,9,3,20,0.00
2012-3-30,77.5,60.5,52.3,56.1,47.4,30.8,99,68,24,30.13,29.95,6,2,17,0.15
2012-3-31,72.5,62.0,55.0,58.8,54.6,49.4,100,79,47,29.97,29.85,7,2,18,0.15
2012-4-1,75.8,60.6,51.0,56.9,49.1,36.9,97,70,29,29.97,29.88,11,3,20,0.22
2012-4-2,79.0,62.5,49.6,65.4,56.2,49.6,100,83,43,30.03,29.88,8,2,18,0.07
2012-4-3,74.9,62.0,54.1,61.6,57.4,53.2,100,86,59,30.12,30.00,6,2,19,0.15
2012-4-4,77.4,63.4,49.7,61.6,55.0,49.7,100,77,39,30.02,29.78,7,2,16,0.02
2012-4-5,68.1,56.7,46.0,60.3,54.6,46.0,100,93,68,29.86,29.79,9,2,14,1.04
2012-4-6,58.2,48.8,40.6,50.2,42.2,33.4,100,80,52,30.15,29.85,8,4,14,0.20
2012-4-7,69.9,53.2,35.0,40.2,29.2,14.7,94,49,13,30.30,30.15,6,2,12,0.00
2012-4-8,72.3,57.3,40.3,43.4,35.1,25.7,76,46,21,30.22,30.08,9,2,19,0.00
2012-4-9,70.9,56.0,37.8,35.9,24.6,0.2,78,36,7,30.15,29.97,7,3,21,0.00
2012-4-10,67.8,57.0,48.3,34.5,27.9,17.7,45,33,23,30.03,29.89,11,6,26,0.00
2012-4-11,54.7,45.5,36.5,22.9,17.6,12.3,49,33,20,30.14,29.94,9,4,24,0.00
2012-4-12,63.7,42.8,26.5,27.6,20.5,0.3,82,47,8,30.26,30.12,6,1,13,0.00
2012-4-13,62.7,48.8,32.7,34.4,26.2,15.2,81,47,17,30.30,30.16,5,1,10,0.00
2012-4-14,71.6,56.2,41.8,43.2,37.0,27.0,74,50,32,30.35,30.22,6,2,15,0.00
2012-4-15,79.4,62.6,46.7,56.5,49.6,39.6,86,64,40,30.26,30.18,8,2,18,0.00
2012-4-16,81.4,68.7,58.3,60.6,57.5,53.3,92,70,40,30.24,30.14,7,2,15,0.00
2012-4-17,72.5,64.3,54.7,60.9,56.9,52.4,100,78,55,30.24,30.13,5,2,18,0.93
2012-4-18,55.4,49.3,46.4,55.4,49.3,46.4,100,100,100,30.21,30.12,10,5,18,0.75
2012-4-19,62.8,54.0,47.3,55.8,51.8,47.3,100,93,76,30.14,30.06,5,2,10,0.00
2012-4-20,69.1,57.7,52.3,57.4,53.7,52.3,100,88,62,30.09,29.93,6,1,11,0.00
2012-4-21,69.8,59.9,51.8,59.0,55.6,51.2,100,87,64,29.96,29.79,4,1,10,0.11
2012-4-22,59.7,49.8,37.0,54.3,47.0,34.3,100,91,64,29.82,29.62,8,2,25,0.06
2012-4-23,49.8,41.0,34.3,34.2,27.0,17.9,91,61,28,29.78,29.65,7,4,22,0.01
2012-4-24,57.0,47.4,38.3,42.9,27.6,14.0,86,48,21,29.92,29.75,9,4,23,0.10
2012-4-25,68.1,52.3,42.6,56.5,48.4,41.2,100,88,59,30.01,29.89,6,1,18,0.30
2012-4-26,68.2,57.3,52.0,62.6,56.6,51.7,100,98,78,30.00,29.88,9,1,26,0.56
2012-4-27,75.5,62.4,52.9,60.5,54.3,46.7,100,78,41,30.14,29.97,6,1,12,0.00
2012-4-28,66.7,59.3,53.4,54.7,49.2,40.2,96,70,52,30.21,30.13,6,4,14,0.00
2012-4-29,80.2,65.0,52.2,62.5,57.7,52.2,100,80,44,30.23,30.16,5,1,11,0.01
2012-4-30,78.5,67.2,55.8,65.8,61.5,55.8,100,83,59,30.26,30.14,5,1,11,0.00
2012-5-1,83.3,69.2,61.7,70.7,64.2,56.9,100,86,41,30.21,30.12,4,1,11,0.10
2012-5-2,84.9,70.2,61.2,69.1,63.5,53.2,100,82,34,30.23,30.14,4,1,10,0.01
2012-5-3,81.2,68.5,57.6,66.4,60.8,52.7,100,79,38,30.24,30.15,4,1,10,0.01
2012-5-4,80.7,69.9,61.3,64.5,61.1,58.3,100,76,51,30.17,30.04,5,1,10,0.00
2012-5-5,76.6,65.9,58.1,64.9,60.7,57.7,100,85,55,30.09,29.97,5,1,15,0.09
2012-5-6,73.9,65.4,55.8,63.2,60.0,55.6,100,84,65,30.13,30.02,4,1,9,0.00
2012-5-7,69.7,64.5,60.0,61.2,60.2,57.5,100,87,67,30.14,30.03,4,1,8,0.00
2012-5-8,73.9,65.4,59.7,67.7,63.1,58.8,100,93,77,30.07,29.92,3,0,10,0.79
2012-5-9,62.7,57.8,48.6,62.7,56.7,48.1,100,96,84,29.97,29.84,5,0,17,0.13
2012-5-10,66.3,53.8,43.0,48.2,44.5,37.7,100,74,38,30.08,29.91,5,1,16,0.00
2012-5-11,66.8,52.6,40.5,49.1,43.5,39.2,100,74,47,30.29,30.09,3,1,7,0.00
2012-5-12,65.7,56.7,48.4,58.3,52.7,45.5,100,87,72,30.40,30.29,4,0,8,0.02
2012-5-13,57.7,55.1,51.9,57.6,55.1,51.9,100,100,100,30.33,30.16,2,0,6,0.47
2012-5-14,72.5,60.8,54.4,65.6,59.5,54.4,100,96,75,30.16,29.98,5,1,10,1.05
2012-5-15,72.2,61.7,55.7,65.8,60.9,55.7,100,97,76,30.09,30.02,3,0,7,0.09
2012-5-16,74.6,63.5,55.5,64.5,59.2,54.2,100,87,57,30.09,29.99,3,0,7,0.01
2012-5-17,72.5,62.0,51.6,60.7,55.3,50.7,100,81,49,30.14,30.03,4,1,8,0.51
2012-5-18,69.3,61.1,54.5,61.2,58.5,54.5,100,92,70,30.23,30.13,4,1,8,0.29
2012-5-19,71.2,61.0,49.8,62.0,56.0,49.8,100,85,69,30.28,30.15,4,2,8,0.00
2012-5-20,73.5,62.4,51.9,55.4,52.2,47.2,100,73,48,30.27,30.14,3,1,9,0.00
2012-5-21,77.0,62.5,52.9,66.0,57.6,51.1,100,86,51,30.16,30.01,3,1,8,1.20
2012-5-22,68.0,61.2,54.2,65.7,60.4,54.2,100,97,82,30.03,29.92,1,0,3,0.21
2012-5-23,66.0,60.3,55.6,64.8,60.1,55.6,100,99,90,30.06,29.93,0,0,0,1.17
2012-5-24,76.6,64.3,54.5,64.6,59.4,54.5,100,86,54,30.13,30.05,0,0,0,0.00
2012-5-25,78.2,67.8,57.9,67.6,63.4,57.9,100,87,63,30.23,30.13,0,0,0,0.00
2012-5-26,78.2,68.9,59.0,69.1,64.6,59.0,100,87,65,30.26,30.16,0,0,0,0.00
2012-5-27,76.0,69.1,62.4,67.1,65.0,62.2,100,88,66,30.25,30.15,0,0,0,0.00
2012-5-28,76.3,68.9,64.4,67.5,65.6,64.3,100,90,69,30.19,30.06,0,0,2,0.00
2012-5-29,74.6,67.7,62.5,70.2,66.1,62.5,100,95,80,30.09,29.93,0,0,0,0.31
2012-5-30,80.8,69.0,61.4,66.7,59.0,40.4,100,77,24,29.96,29.90,0,0,0,0.00
2012-5-31,79.2,66.5,53.4,63.5,58.8,53.1,100,79,53,30.03,29.90,0,0,0,0.00
2012-6-1,70.6,63.6,55.1,64.6,60.9,50.5,100,91,73,29.95,29.81,0,0,0,0.31
2012-6-2,54.9,54.2,53.6,51.1,50.1,49.2,88,86,84,29.94,29.92,0,0,0,0.00
2012-6-3,75.3,60.9,46.8,57.2,51.2,45.0,98,73,43,30.11,29.96,0,0,0,0.00
2012-6-4,73.8,63.7,55.2,62.0,57.1,52.3,95,80,62,29.97,29.84,0,0,0,0.00
2012-6-5,68.6,61.5,56.9,61.5,58.8,55.3,100,91,66,29.98,29.83,0,0,0,0.32
2012-6-6,60.8,57.5,55.6,58.6,57.0,55.6,100,98,89,30.14,29.95,0,0,0,0.35
2012-6-7,68.9,61.0,53.7,60.9,57.5,53.7,100,89,64,30.17,30.09,0,0,0,0.03
2012-6-8,71.9,62.5,53.2,62.0,58.0,53.2,100,86,63,30.19,30.09,0,0,0,0.03
2012-6-9,75.8,65.0,56.4,65.1,60.1,55.0,100,85,57,30.20,30.10,0,0,0,0.05
2012-6-10,65.5,61.3,57.2,62.2,59.1,55.0,100,93,73,30.26,30.15,0,0,0,0.11
2012-6-11,71.3,65.0,59.5,70.8,65.0,59.5,100,100,96,30.24,30.08,0,0,0,0.56
2012-6-12,79.3,70.5,65.7,72.6,68.0,64.5,100,92,73,30.09,29.97,0,0,1,0.00
2012-6-13,78.4,68.9,60.8,70.2,65.8,60.8,100,90,61,30.10,30.01,0,0,1,0.01
2012-6-14,73.2,66.6,61.2,65.0,60.4,53.0,100,81,66,30.24,30.10,4,0,7,0.00
2012-6-15,69.2,63.8,59.5,64.7,61.3,59.2,100,92,82,30.33,30.21,4,2,6,0.00
2012-6-16,70.8,61.9,54.0,63.4,59.1,54.0,100,91,76,30.39,30.23,3,1,6,0.00
2012-6-17,75.9,65.6,56.9,66.9,61.0,54.6,96,86,70,30.28,30.10,2,0,5,0.01
2012-6-18,76.1,66.4,59.9,71.9,64.8,59.9,100,95,69,30.21,30.12,3,0,5,0.28
2012-6-19,78.3,67.7,58.3,68.6,63.8,58.3,100,89,66,30.27,30.19,3,0,6,0.00
2012-6-20,80.0,69.6,60.8,69.9,65.0,60.8,100,87,61,30.27,30.16,3,0,5,0.00
2012-6-21,79.0,70.6,63.1,72.1,67.8,63.1,100,91,74,30.19,30.02,1,0,5,0.00
2012-6-22,78.0,69.2,63.5,72.3,68.0,63.5,100,96,78,30.05,29.97,5,0,9,0.15
2012-6-23,78.2,68.9,62.9,74.0,67.3,62.9,100,95,78,30.09,29.99,3,0,10,0.50
2012-6-24,79.2,70.8,63.6,72.8,68.6,63.6,100,93,75,30.11,29.98,3,1,5,0.37
2012-6-25,80.6,70.8,63.0,73.1,67.0,62.8,100,89,62,30.02,29.83,1,0,4,0.00
2012-6-26,73.5,65.4,57.7,63.1,58.5,54.7,100,80,59,30.01,29.86,4,1,5,0.00
2012-6-27,79.6,65.1,51.9,62.5,55.9,50.8,97,74,50,30.12,30.01,3,0,5,0.00
2012-6-28,88.6,71.1,54.3,62.7,56.5,49.2,96,65,30,30.16,30.03,2,0,8,0.00
2012-6-29,88.2,80.7,70.9,77.1,62.1,48.1,78,55,32,30.05,29.95,3,1,11,0.00
2012-6-30,93.0,77.1,66.3,77.0,68.7,62.7,96,77,38,30.03,29.96,2,0,4,0.00
2012-7-1,90.2,77.0,67.7,75.2,70.4,65.7,100,82,53,30.10,29.99,3,0,5,0.00
2012-7-2,83.0,72.3,61.8,72.9,67.4,61.8,100,86,62,30.24,30.04,5,0,8,0.84
2012-7-3,83.4,69.9,63.7,76.1,68.2,63.7,100,95,59,30.14,30.05,7,0,13,0.21
2012-7-4,83.1,72.0,64.3,73.7,68.7,64.2,100,90,66,30.12,30.03,4,0,8,0.01
2012-7-5,84.3,72.0,65.8,75.4,68.7,60.1,100,90,64,30.10,30.02,6,0,11,0.03
2012-7-6,83.5,72.3,61.3,74.5,67.3,60.9,100,86,65,30.10,30.03,2,0,4,0.00
2012-7-7,85.9,75.4,65.6,76.2,70.8,65.6,100,87,62,30.12,30.02,2,0,4,0.00
2012-7-8,87.7,75.9,69.3,77.4,72.6,68.9,100,90,65,30.09,29.96,2,0,10,0.23
2012-7-9,83.0,73.8,67.6,75.2,71.1,67.6,100,92,73,30.02,29.96,3,0,6,0.00
2012-7-10,78.3,70.4,65.3,73.0,69.6,65.3,100,97,80,30.13,30.01,4,1,6,0.05
2012-7-11,66.9,64.9,63.3,66.9,64.9,63.3,100,100,100,30.23,30.09,4,2,7,0.50
2012-7-12,63.7,62.2,60.3,63.7,59.7,-99.9,100,98,100,30.26,30.18,4,3,7,0.00
2012-7-13,99.7,66.0,63.3,64.8,-67.8,-99.9,100,20,100,30.26,30.17,3,0,5,0.59
2012-7-14,76.6,70.6,67.1,-99.9,-99.9,-99.9,0,0,100,30.27,30.17,1,0,5,0.68
2012-7-15,78.1,70.6,65.3,-99.9,-99.9,-99.9,0,0,100,30.26,30.14,2,0,5,0.00
2012-7-16,83.4,73.2,65.0,-99.9,-99.9,-99.9,0,0,100,30.18,30.03,1,0,8,0.00
2012-7-17,78.2,70.6,64.2,-99.9,-99.9,-99.9,0,0,100,30.09,30.01,0,0,4,0.00
2012-7-18,82.2,68.3,63.4,-99.9,-99.9,-99.9,0,0,100,30.10,29.99,1,0,5,0.09
2012-7-19,84.7,73.7,65.0,-99.9,-99.9,-99.9,0,0,100,30.12,30.01,1,0,6,0.69
2012-7-20,76.5,70.8,67.1,-99.9,-99.9,-99.9,0,0,100,30.06,29.97,1,0,5,0.24
2012-7-21,80.7,72.0,66.5,-99.9,-99.9,-99.9,0,0,100,30.14,30.02,0,0,4,0.24
2012-7-22,84.1,72.5,64.6,-99.9,-99.9,-99.9,0,0,100,30.24,30.14,1,0,5,0.98
2012-7-23,81.9,72.7,66.0,-99.9,-99.9,-99.9,0,0,100,30.26,30.12,1,0,4,0.17
2012-7-24,83.3,75.8,68.9,-99.9,-99.9,-99.9,0,0,100,30.14,29.98,3,0,12,0.00
2012-7-25,84.3,75.5,66.1,-99.9,-99.9,-99.9,0,0,100,30.08,29.97,2,0,13,0.14
2012-7-26,87.3,77.7,70.9,-99.9,-99.9,-99.9,0,0,100,30.00,29.89,2,0,6,0.00
2012-7-27,84.9,76.1,70.1,-99.9,-99.9,-99.9,0,0,100,30.02,29.92,2,0,7,0.00
2012-7-28,85.8,75.2,66.7,-99.9,-99.9,-99.9,0,0,100,30.08,30.00,1,0,6,0.00
2012-7-29,82.2,71.7,62.0,-99.9,-99.9,-99.9,0,0,100,30.09,30.01,1,0,4,0.00
2012-7-30,79.4,71.6,65.9,-99.9,-99.9,-99.9,0,0,100,30.07,29.99,2,0,5,0.00
2012-7-31,71.3,67.8,65.6,-99.9,-99.9,-99.9,0,0,100,30.04,29.95,1,0,3,0.15
2012-8-1,83.7,72.2,64.7,-99.9,-99.9,-99.9,0,0,100,30.00,29.91,1,0,6,0.01
2012-8-2,83.4,73.1,64.5,-99.9,-99.9,-99.9,0,0,100,30.00,29.92,0,0,4,0.00
2012-8-3,79.4,71.3,62.9,-99.9,-99.9,-99.9,0,0,100,30.09,29.95,1,0,5,0.00
2012-8-4,78.3,70.2,66.1,-99.9,-99.9,-99.9,0,0,100,30.22,30.07,1,0,5,0.20
2012-8-5,82.1,73.2,66.4,-99.9,-99.9,-99.9,0,0,100,30.25,30.14,1,0,5,0.00
2012-8-6,79.8,70.4,67.0,-99.9,-99.9,-99.9,0,0,100,30.16,30.06,0,0,3,0.28
2012-8-7,77.0,70.1,67.4,-99.9,-99.9,-99.9,0,0,100,30.09,30.01,0,0,3,0.50
2012-8-8,79.7,71.3,65.8,-99.9,-99.9,-99.9,0,0,100,30.07,29.99,1,0,4,0.01
2012-8-9,78.9,68.6,64.0,-99.9,-99.9,-99.9,0,0,100,30.06,29.93,1,0,4,0.60
2012-8-10,78.7,70.1,63.5,-99.9,-99.9,-99.9,0,0,100,29.93,29.85,0,0,2,0.27
2012-8-11,77.2,68.7,62.7,-99.9,-99.9,-99.9,0,0,100,30.01,29.90,0,0,3,0.00
2012-8-12,78.6,66.9,56.6,-99.9,-99.9,-99.9,0,0,100,30.10,30.01,0,0,1,0.00
2012-8-13,76.2,67.0,58.3,-99.9,-99.9,-99.9,0,0,100,30.11,29.99,0,0,3,0.00
2012-8-14,80.4,68.2,57.4,-99.9,-99.9,-99.9,0,0,100,30.04,29.92,0,0,3,0.01
2012-8-15,77.6,68.0,60.6,-99.9,-99.9,-99.9,0,0,100,30.07,29.96,1,0,6,0.00
2012-8-16,78.0,66.2,56.1,-99.9,-99.9,-99.9,0,0,100,30.15,30.01,0,0,0,0.00
2012-8-17,76.3,67.5,59.5,-99.9,-99.9,-99.9,0,0,100,30.10,29.92,0,0,2,0.00
2012-8-18,70.6,65.9,61.4,-99.9,-99.9,-99.9,0,0,100,30.01,29.93,0,0,1,0.07
2012-8-19,74.2,67.1,61.1,-99.9,-99.9,-99.9,0,0,100,29.96,29.88,0,0,1,0.22
2012-8-20,75.9,66.4,58.7,-99.9,-99.9,-99.9,0,0,100,30.06,29.93,1,0,5,0.00
2012-8-21,67.4,56.8,53.9,-99.9,-99.9,-99.9,0,0,100,30.14,30.07,0,0,0,0.00
2012-8-23,74.2,66.8,61.1,-99.9,-99.9,-99.9,0,0,100,30.22,30.14,0,0,1,0.00
2012-8-24,74.6,65.1,58.6,-99.9,-99.9,-99.9,0,0,100,30.22,30.14,0,0,3,0.09
2012-8-25,74.0,65.1,56.7,-99.9,-99.9,-99.9,0,0,100,30.25,30.13,0,0,3,0.00
2012-8-26,76.8,66.7,57.2,-99.9,-99.9,-99.9,0,0,100,30.23,30.14,0,0,3,0.00
2012-8-27,77.6,68.6,59.7,-99.9,-99.9,-99.9,0,0,100,30.22,30.08,0,0,1,0.00
2012-8-28,81.1,69.2,61.5,-99.9,-99.9,-99.9,0,0,100,30.12,30.00,0,0,3,0.00
2012-8-29,76.5,69.3,64.4,-99.9,-99.9,-99.9,0,0,100,30.06,30.00,0,0,2,0.27
2012-8-30,78.0,70.3,64.8,-99.9,-99.9,-99.9,0,0,100,30.19,30.03,0,0,1,0.49
2012-8-31,85.2,74.1,68.8,-99.9,-99.9,-99.9,0,0,100,30.26,30.15,0,0,0,0.00
2012-9-1,82.4,73.2,68.0,-99.9,-99.9,-99.9,0,0,100,30.20,30.09,0,0,0,0.01
2012-9-2,80.7,72.8,67.6,-99.9,-99.9,-99.9,0,0,100,30.12,29.97,0,0,2,0.40
2012-9-3,75.5,70.9,67.1,-99.9,-99.9,-99.9,0,0,100,30.04,29.96,2,0,7,0.52
2012-9-4,72.8,68.9,66.7,-99.9,-99.9,-99.9,0,0,100,30.01,29.95,0,0,3,0.35
2012-9-5,78.9,72.5,68.2,-99.9,-99.9,-99.9,0,0,100,29.99,29.90,0,0,4,0.00
2012-9-6,80.3,72.4,66.3,-99.9,-99.9,-99.9,0,0,100,30.00,29.91,0,0,5,0.00
2012-9-7,79.1,70.0,61.8,-99.9,-99.9,-99.9,0,0,100,30.03,29.91,0,0,3,0.00
2012-9-8,80.5,68.6,60.7,-99.9,-99.9,-99.9,0,0,100,29.92,29.78,1,0,9,0.05
2012-9-9,72.4,61.4,49.8,-99.9,-99.9,-99.9,0,0,100,30.08,29.89,1,0,4,0.00
2012-9-10,72.5,60.7,50.4,-99.9,-99.9,-99.9,0,0,100,30.21,30.07,0,0,3,0.00
2012-9-11,69.9,61.4,55.6,-99.9,-99.9,-99.9,0,0,100,30.34,30.21,2,0,4,0.00
2012-9-12,72.0,62.5,54.1,-99.9,-99.9,-99.9,0,0,100,30.36,30.26,1,0,5,0.00
2012-9-13,68.9,60.5,53.7,-99.9,-99.9,-99.9,0,0,100,30.36,30.26,1,0,3,0.00
2012-9-14,74.5,63.0,55.8,-99.9,-99.9,-99.9,0,0,100,30.30,30.19,1,0,2,0.00
2012-9-15,76.2,64.0,54.6,-99.9,-99.9,-99.9,0,0,100,30.24,30.12,0,0,0,0.35
2012-9-16,73.6,64.5,60.9,-99.9,-99.9,-99.9,0,0,100,30.15,30.07,1,0,3,0.28
2012-9-17,66.2,63.3,60.5,-99.9,-99.9,-99.9,0,0,100,30.10,29.87,2,0,9,0.48
2012-9-18,66.3,64.0,59.0,-99.9,-99.9,-99.9,0,0,100,29.90,29.75,2,0,15,2.41
2012-9-19,71.6,59.5,51.7,-99.9,-99.9,-99.9,0,0,100,30.11,29.91,1,0,5,0.00
2012-9-20,71.6,61.8,56.0,-99.9,-99.9,-99.9,0,0,100,30.15,30.05,2,0,4,0.00
2012-9-21,75.2,62.7,52.7,-99.9,-99.9,-99.9,0,0,100,30.11,30.01,0,0,3,0.00
2012-9-22,78.1,66.0,56.9,-99.9,-99.9,-99.9,0,0,100,30.06,29.95,2,0,8,0.00
2012-9-23,68.8,57.6,47.4,-99.9,-99.9,-99.9,0,0,100,30.15,30.05,2,0,8,0.00
2012-9-24,67.4,51.6,39.7,-99.9,-99.9,-99.9,0,0,100,30.23,30.15,2,0,6,0.00
2012-9-25,71.4,57.0,45.0,-99.9,-99.9,-99.9,0,0,100,30.24,30.19,1,0,4,0.00
2012-9-26,77.1,63.3,53.2,-99.9,-99.9,-99.9,0,0,100,30.23,30.16,0,0,0,0.00
2012-9-27,76.5,63.3,53.6,-99.9,-99.9,-99.9,0,0,100,30.23,30.13,0,0,3,0.00
2012-9-28,77.9,63.6,55.7,-99.9,-99.9,-99.9,0,0,100,30.16,30.02,0,0,5,0.07
2012-9-29,68.6,61.5,56.7,-99.9,-99.9,-99.9,0,0,100,30.05,29.90,1,0,5,0.13
2012-9-30,66.3,58.3,50.5,-99.9,-99.9,-99.9,0,0,100,29.95,29.88,0,0,3,0.00
2012-10-1,57.5,54.9,54.0,-99.9,-99.9,-99.9,0,0,100,29.92,29.83,4,2,8,0.06
2012-10-2,71.2,62.9,55.8,-99.9,-99.9,-99.9,0,0,100,30.00,29.82,2,0,6,1.07
2012-10-3,72.1,62.5,57.7,-99.9,-99.9,-99.9,0,0,100,30.19,30.00,1,0,4,0.00
2012-10-4,72.4,62.2,53.2,-99.9,-99.9,-99.9,0,0,100,30.25,30.18,2,0,5,0.00
2012-10-5,74.0,59.4,48.7,-99.9,-99.9,-99.9,0,0,100,30.24,30.05,0,0,0,0.00
2012-10-6,72.3,60.5,51.5,-99.9,-99.9,-99.9,0,0,100,30.06,29.94,2,0,5,0.00
2012-10-7,55.7,51.7,45.2,-99.9,-99.9,-99.9,0,0,100,30.13,29.96,1,0,5,0.29
2012-10-8,45.9,43.6,42.0,-99.9,-99.9,-99.9,0,0,100,30.23,30.10,3,1,8,0.00
2012-10-9,54.8,46.8,42.2,-99.9,-99.9,-99.9,0,0,100,30.19,30.10,0,0,3,0.00
2012-10-10,62.1,52.4,45.1,-99.9,-99.9,-99.9,0,0,100,30.17,30.08,2,0,8,0.00
2012-10-11,66.1,51.3,37.9,-99.9,-99.9,-99.9,0,0,100,30.30,30.16,1,0,6,0.00
2012-10-12,69.4,55.2,46.0,-99.9,-99.9,-99.9,0,0,100,30.33,30.21,2,0,7,0.00
2012-10-13,59.5,50.8,44.0,-99.9,-99.9,-99.9,0,0,100,30.47,30.33,4,1,10,0.00
2012-10-14,63.0,55.4,46.2,-99.9,-99.9,-99.9,0,0,100,30.35,30.08,0,0,2,0.00
2012-10-15,66.4,59.3,50.8,-99.9,-99.9,-99.9,0,0,100,30.08,29.87,3,1,11,1.19
2012-10-16,66.2,54.0,44.7,-99.9,-99.9,-99.9,0,0,100,30.01,29.90,4,0,12,0.00
2012-10-17,68.1,52.3,40.7,-99.9,-99.9,-99.9,0,0,100,30.03,29.92,1,0,6,0.00
2012-10-18,63.1,54.9,46.4,-99.9,-99.9,-99.9,0,0,100,29.94,29.84,0,0,4,0.00
2012-10-19,65.8,52.8,40.5,-99.9,-99.9,-99.9,0,0,100,29.86,29.75,1,0,5,0.01
2012-10-20,63.4,51.3,42.6,-99.9,-99.9,-99.9,0,0,100,30.01,29.82,2,0,7,0.00
2012-10-21,67.6,53.9,43.6,-99.9,-99.9,-99.9,0,0,100,30.19,30.01,3,0,6,0.00
2012-10-22,75.0,56.0,43.3,-99.9,-99.9,-99.9,0,0,100,30.29,30.18,2,0,5,0.00
2012-10-23,75.9,59.3,48.3,-99.9,-99.9,-99.9,0,0,100,30.24,30.13,1,0,5,0.00
2012-10-24,75.7,59.5,47.6,-99.9,-99.9,-99.9,0,0,100,30.25,30.13,3,0,7,0.00
2012-10-25,69.5,58.7,49.5,-99.9,-99.9,-99.9,0,0,100,30.20,30.13,3,1,9,0.00
2012-10-26,70.8,62.2,55.6,-99.9,-99.9,-99.9,0,0,100,30.13,29.99,4,1,9,0.00
2012-10-27,66.0,56.7,50.3,-99.9,-99.9,-99.9,0,0,100,30.00,29.81,3,0,7,0.00
2012-10-28,58.3,47.2,38.9,-99.9,-99.9,-99.9,0,0,100,29.85,29.75,3,1,17,0.12
2012-10-29,41.6,37.3,33.8,-99.9,-99.9,-99.9,0,0,100,29.76,29.53,8,4,32,0.00
2012-10-30,35.8,34.0,32.0,-99.9,-99.9,-99.9,0,0,100,29.65,29.43,8,3,21,0.09
2012-10-31,50.3,40.2,34.8,-99.9,-99.9,-99.9,0,0,100,29.78,29.63,7,3,22,0.03
2012-11-1,52.7,42.7,36.6,-99.9,-99.9,-99.9,0,0,100,29.88,29.75,4,2,18,0.00
2012-11-2,62.3,48.1,35.8,-99.9,-99.9,-99.9,0,0,100,29.99,29.86,7,1,17,0.00
2012-11-3,70.7,53.8,38.1,-99.9,-99.9,-99.9,0,0,100,30.09,29.99,4,1,13,0.00
2012-11-4,67.3,53.8,45.5,-99.9,-99.9,-99.9,0,0,100,30.01,29.93,4,1,9,0.00
2012-11-5,43.7,42.8,42.2,-99.9,-99.9,-99.9,0,0,100,30.05,30.04,2,1,5,0.00
2012-11-6,42.5,35.9,33.2,-99.9,-99.9,-99.9,0,0,100,30.11,29.91,4,1,10,0.00
2012-11-7,45.2,39.5,35.7,-99.9,-99.9,-99.9,0,0,100,29.98,29.85,2,0,7,0.08
2012-11-8,56.1,43.5,34.6,-99.9,-99.9,-99.9,0,0,100,30.15,29.98,4,1,12,0.01
2012-11-9,65.6,46.1,30.5,-99.9,-99.9,-99.9,0,0,100,30.26,30.14,4,1,7,0.00
2012-11-10,70.2,51.1,36.7,-99.9,-99.9,-99.9,0,0,100,30.36,30.25,3,0,7,0.00
2012-11-11,66.5,54.7,42.6,-99.9,-99.9,-99.9,0,0,100,30.44,30.35,2,0,10,0.00
2012-11-12,59.9,56.6,43.6,-99.9,-99.9,-99.9,0,0,100,30.35,30.17,4,1,13,0.28
2012-11-13,52.9,41.2,30.1,-99.9,-99.9,-99.9,0,0,100,30.34,30.18,3,1,9,0.00
2012-11-14,45.5,37.0,30.1,-99.9,-99.9,-99.9,0,0,100,30.46,30.31,5,3,13,0.00
2012-11-15,52.7,39.4,31.7,-99.9,-99.9,-99.9,0,0,100,30.35,30.21,4,1,9,0.01
2012-11-16,56.8,41.2,29.9,-99.9,-99.9,-99.9,0,0,100,30.38,30.25,4,1,8,0.00
2012-11-17,52.8,43.4,35.9,-99.9,-99.9,-99.9,0,0,100,30.48,30.38,6,4,14,0.00
2012-11-18,50.8,43.8,37.5,-99.9,-99.9,-99.9,0,0,100,30.47,30.36,6,3,16,0.00
2012-11-19,59.8,47.8,41.6,-99.9,-99.9,-99.9,0,0,100,30.37,30.20,2,1,7,0.00
2012-11-20,62.6,47.6,38.8,-99.9,-99.9,-99.9,0,0,100,30.20,30.06,4,1,13,0.00
2012-11-21,64.4,48.9,37.8,-99.9,-99.9,-99.9,0,0,100,30.18,30.10,3,0,7,0.00
2012-11-22,65.4,48.4,34.9,-99.9,-99.9,-99.9,0,0,100,30.25,30.15,2,1,6,0.00
2012-11-23,62.4,46.9,34.3,-99.9,-99.9,-99.9,0,0,100,30.16,29.96,6,2,18,0.00
2012-11-24,43.9,35.1,28.2,-99.9,-99.9,-99.9,0,0,100,30.07,29.96,5,2,18,0.00
2012-11-25,53.6,36.7,23.2,-99.9,-99.9,-99.9,0,0,100,30.10,29.98,3,1,7,0.00
2012-11-26,63.4,47.3,30.0,-99.9,-99.9,-99.9,0,0,100,30.18,30.06,3,1,11,0.00
2012-11-27,53.1,45.0,38.2,-99.9,-99.9,-99.9,0,0,100,30.20,30.08,3,0,8,0.02
2012-11-28,52.8,39.3,28.0,-99.9,-99.9,-99.9,0,0,100,30.35,30.18,4,1,9,0.00
2012-11-29,58.2,39.7,27.6,-99.9,-99.9,-99.9,0,0,100,30.42,30.31,2,1,7,0.00
2012-11-30,61.5,43.9,30.6,-99.9,-99.9,-99.9,0,0,100,30.37,30.23,3,0,8,0.00
2012-12-1,62.8,46.4,34.8,-99.9,-99.9,-99.9,0,0,100,30.38,30.29,2,0,6,0.00
2012-12-2,65.8,52.8,42.6,-99.9,-99.9,-99.9,0,0,100,30.35,30.24,4,1,12,0.00
2012-12-3,70.3,53.8,43.2,-99.9,-99.9,-99.9,0,0,100,30.32,30.23,2,0,8,0.00
2012-12-4,68.8,55.0,45.0,-99.9,-99.9,-99.9,0,0,100,30.32,30.18,4,0,10,0.00
2012-12-5,59.4,52.4,41.2,-99.9,-99.9,-99.9,0,0,100,30.20,30.13,3,1,9,0.01
2012-12-6,48.9,43.9,38.6,-99.9,-99.9,-99.9,0,0,100,30.30,30.19,5,2,10,0.00
2012-12-7,60.8,48.1,40.9,-99.9,-99.9,-99.9,0,0,100,30.21,30.00,2,0,6,0.03
2012-12-8,67.2,54.1,44.1,-99.9,-99.9,-99.9,0,0,100,30.06,29.98,4,0,9,0.00
2012-12-9,65.7,56.3,48.8,-99.9,-99.9,-99.9,0,0,100,30.10,29.96,3,1,11,0.01
2012-12-10,58.2,55.1,46.5,-99.9,-99.9,-99.9,0,0,100,29.96,29.71,3,1,13,0.28
2012-12-11,46.5,38.9,32.5,-99.9,-99.9,-99.9,0,0,100,30.16,29.78,5,1,9,0.00
2012-12-12,39.1,36.4,32.0,-99.9,-99.9,-99.9,0,0,100,30.27,30.15,4,2,11,0.00
2012-12-13,48.2,37.9,30.7,-99.9,-99.9,-99.9,0,0,100,30.33,30.23,5,2,9,0.00
2012-12-14,59.7,40.1,27.0,-99.9,-99.9,-99.9,0,0,100,30.31,30.18,2,1,5,0.00
2012-12-15,56.5,45.4,36.0,-99.9,-99.9,-99.9,0,0,100,30.20,30.02,2,0,5,0.00
2012-12-16,52.7,49.3,43.3,-99.9,-99.9,-99.9,0,0,100,30.05,29.87,3,0,6,0.43
2012-12-17,51.5,49.2,46.9,-99.9,-99.9,-99.9,0,0,100,29.88,29.67,5,1,15,0.39
2012-12-18,48.7,42.6,31.9,-99.9,-99.9,-99.9,0,0,100,29.95,29.70,7,2,21,0.17
2012-12-19,61.4,47.2,31.3,-99.9,-99.9,-99.9,0,0,100,30.10,29.95,5,2,14,0.03
2012-12-20,46.5,42.0,32.8,-99.9,-99.9,-99.9,0,0,100,30.09,29.58,7,2,20,0.13
2012-12-21,32.7,30.8,28.2,-99.9,-99.9,-99.9,0,0,100,29.81,29.61,11,7,28,0.04
2012-12-22,47.6,33.9,23.8,-99.9,-99.9,-99.9,0,0,100,30.09,29.89,9,3,24,0.07
2012-12-23,49.2,37.4,25.5,-99.9,-99.9,-99.9,0,0,100,30.11,29.98,1,0,5,0.01
2012-12-24,48.8,44.5,40.2,-99.9,-99.9,-99.9,0,0,100,29.98,29.82,3,0,8,0.63
2012-12-25,48.3,42.1,36.7,-99.9,-99.9,-99.9,0,0,100,30.05,29.88,9,2,19,0.03
2012-12-26,40.4,36.0,29.1,-99.9,-99.9,-99.9,0,0,100,29.88,29.51,11,4,23,0.38
2012-12-27,38.6,30.9,26.5,-99.9,-99.9,-99.9,0,0,100,30.01,29.71,7,2,17,0.00
2012-12-28,45.0,33.6,24.3,-99.9,-99.9,-99.9,0,0,100,30.08,29.89,4,0,7,0.04
2012-12-29,41.8,34.9,29.4,-99.9,-99.9,-99.9,0,0,100,29.89,29.75,7,2,27,0.15
2013-1-1,41.7,39.6,38.4,-99.9,-99.9,-99.9,0,0,100,30.06,29.99,0,0,4,0.18